Qena, Egypt
Current Conditions -  °F | °C
As of 11:00 AM on Monday 24 Nov 2014 (Local Time) from HELX Reporting Station
Scattered Clouds Scattered Clouds  
Wind Chill: 72°   Ceiling: Unl
Heat Index: 72°   Visibility: 6mi
Dew Point: 52°   Wind: 6mph
Humidity: 50%   Direction: 310°NW
Pressure: 30.03"   Gusts: NA
Location:  26.15°N, 32.72°E
Report Text: HELX 240900Z 31005KT 9999 SCT025 22/11 Q1017 NOSIG
Loading
Personal Weather Stations






























Interactive Weather Map New forecast layout! Learn more

10-Day Weather Forecast

Advertisements
Track Severe Weather on mobile